sensor_id;sensor_type;location;lat;lon;timestamp;pressure;altitude;pressure_sealevel;temperature;humidity
3428;BME280;1727;42.624;23.406;2022-10-19T00:00:18;95470.63;;;9.75;67.94
3428;BME280;1727;42.624;23.406;2022-10-19T00:02:45;95462.72;;;9.64;68.17
3428;BME280;1727;42.624;23.406;2022-10-19T00:05:12;95460.38;;;9.72;68.59
3428;BME280;1727;42.624;23.406;2022-10-19T00:07:38;95458.03;;;9.56;68.28
3428;BME280;1727;42.624;23.406;2022-10-19T00:10:05;95451.97;;;9.43;70.08
3428;BME280;1727;42.624;23.406;2022-10-19T00:12:34;95450.88;;;9.35;69.80
3428;BME280;1727;42.624;23.406;2022-10-19T00:15:00;95453.38;;;9.36;69.46
3428;BME280;1727;42.624;23.406;2022-10-19T00:17:27;95448.13;;;9.36;69.42
3428;BME280;1727;42.624;23.406;2022-10-19T00:19:54;95456.09;;;9.35;69.76
3428;BME280;1727;42.624;23.406;2022-10-19T00:22:21;95446.84;;;9.42;69.09
3428;BME280;1727;42.624;23.406;2022-10-19T00:24:48;95447.91;;;9.39;69.02
3428;BME280;1727;42.624;23.406;2022-10-19T00:27:15;95447.13;;;9.50;68.68
3428;BME280;1727;42.624;23.406;2022-10-19T00:29:43;95444.75;;;9.47;68.63
3428;BME280;1727;42.624;23.406;2022-10-19T00:32:10;95438.44;;;9.49;68.91
3428;BME280;1727;42.624;23.406;2022-10-19T00:34:37;95436.66;;;9.50;68.75
3428;BME280;1727;42.624;23.406;2022-10-19T00:37:03;95422.84;;;9.48;68.49
3428;BME280;1727;42.624;23.406;2022-10-19T00:39:30;95427.56;;;9.43;68.55
3428;BME280;1727;42.624;23.406;2022-10-19T00:41:57;95415.66;;;9.39;68.71
3428;BME280;1727;42.624;23.406;2022-10-19T00:45:03;95409.19;;;9.31;68.61
3428;BME280;1727;42.624;23.406;2022-10-19T00:47:30;95412.16;;;9.14;69.81
3428;BME280;1727;42.624;23.406;2022-10-19T00:49:58;95409.47;;;9.03;70.49
3428;BME280;1727;42.624;23.406;2022-10-19T00:52:26;95403.19;;;9.06;69.96
3428;BME280;1727;42.624;23.406;2022-10-19T00:54:54;95400.22;;;9.10;70.19
3428;BME280;1727;42.624;23.406;2022-10-19T00:57:22;95396.59;;;9.00;70.80
3428;BME280;1727;42.624;23.406;2022-10-19T00:59:52;95395.03;;;8.97;70.81
3428;BME280;1727;42.624;23.406;2022-10-19T01:02:20;95388.53;;;9.03;70.89
3428;BME280;1727;42.624;23.406;2022-10-19T01:04:49;95384.97;;;9.04;70.90
3428;BME280;1727;42.624;23.406;2022-10-19T01:07:17;95385.19;;;9.01;70.92
3428;BME280;1727;42.624;23.406;2022-10-19T01:09:45;95388.13;;;8.96;71.12
3428;BME280;1727;42.624;23.406;2022-10-19T01:12:20;95377.22;;;8.90;71.84
3428;BME280;1727;42.624;23.406;2022-10-19T01:15:02;95375.66;;;8.87;71.91
3428;BME280;1727;42.624;23.406;2022-10-19T01:17:39;95372.22;;;8.87;71.76
3428;BME280;1727;42.624;23.406;2022-10-19T01:23:29;95367.81;;;8.87;71.93
3428;BME280;1727;42.624;23.406;2022-10-19T01:26:10;95364.88;;;8.92;71.07
3428;BME280;1727;42.624;23.406;2022-10-19T01:28:45;95369.16;;;8.93;70.95
3428;BME280;1727;42.624;23.406;2022-10-19T01:31:20;95365.81;;;8.91;70.88
3428;BME280;1727;42.624;23.406;2022-10-19T01:33:53;95358.69;;;8.93;70.70
3428;BME280;1727;42.624;23.406;2022-10-19T01:36:27;95352.84;;;8.89;70.84
3428;BME280;1727;42.624;23.406;2022-10-19T01:39:02;95355.78;;;8.85;71.25
3428;BME280;1727;42.624;23.406;2022-10-19T01:41:33;95353.06;;;8.86;71.33
3428;BME280;1727;42.624;23.406;2022-10-19T01:44:12;95357.56;;;8.84;71.20
3428;BME280;1727;42.624;23.406;2022-10-19T01:46:43;95352.78;;;8.78;71.19
3428;BME280;1727;42.624;23.406;2022-10-19T01:49:16;95349.66;;;8.73;71.75
3428;BME280;1727;42.624;23.406;2022-10-19T01:51:48;95355.09;;;8.70;71.58
3428;BME280;1727;42.624;23.406;2022-10-19T01:54:18;95349.88;;;8.70;71.68
3428;BME280;1727;42.624;23.406;2022-10-19T01:56:48;95350.59;;;8.59;71.99
3428;BME280;1727;42.624;23.406;2022-10-19T01:59:17;95347.97;;;8.59;72.58
3428;BME280;1727;42.624;23.406;2022-10-19T02:01:48;95349.03;;;8.57;72.71
3428;BME280;1727;42.624;23.406;2022-10-19T02:04:19;95346.22;;;8.47;73.12
3428;BME280;1727;42.624;23.406;2022-10-19T02:06:47;95353.66;;;8.53;72.86
3428;BME280;1727;42.624;23.406;2022-10-19T02:09:15;95348.63;;;8.50;73.39
3428;BME280;1727;42.624;23.406;2022-10-19T02:11:45;95347.19;;;8.46;72.99
3428;BME280;1727;42.624;23.406;2022-10-19T02:14:14;95344.44;;;8.48;72.82
3428;BME280;1727;42.624;23.406;2022-10-19T02:16:48;95344.97;;;8.53;72.28
3428;BME280;1727;42.624;23.406;2022-10-19T02:19:17;95353.03;;;8.50;72.47
3428;BME280;1727;42.624;23.406;2022-10-19T02:21:44;95348.53;;;8.52;72.09
3428;BME280;1727;42.624;23.406;2022-10-19T02:24:11;95342.34;;;8.53;72.03
3428;BME280;1727;42.624;23.406;2022-10-19T02:26:39;95345.28;;;8.48;72.10
3428;BME280;1727;42.624;23.406;2022-10-19T02:29:07;95341.72;;;8.49;71.77
3428;BME280;1727;42.624;23.406;2022-10-19T02:31:34;95332.50;;;8.56;72.32
3428;BME280;1727;42.624;23.406;2022-10-19T02:34:03;95338.13;;;8.63;71.90
3428;BME280;1727;42.624;23.406;2022-10-19T02:36:30;95335.41;;;8.64;71.88
3428;BME280;1727;42.624;23.406;2022-10-19T02:38:57;95329.34;;;8.64;71.38
3428;BME280;1727;42.624;23.406;2022-10-19T02:41:28;95331.78;;;8.54;71.66
3428;BME280;1727;42.624;23.406;2022-10-19T02:44:01;95338.50;;;8.46;71.56
3428;BME280;1727;42.624;23.406;2022-10-19T02:46:34;95325.63;;;8.43;71.86
3428;BME280;1727;42.624;23.406;2022-10-19T02:49:06;95326.69;;;8.40;71.53
3428;BME280;1727;42.624;23.406;2022-10-19T02:51:36;95321.09;;;8.32;71.47
3428;BME280;1727;42.624;23.406;2022-10-19T02:54:05;95325.69;;;8.28;71.34
3428;BME280;1727;42.624;23.406;2022-10-19T02:56:33;95322.69;;;8.22;71.64
3428;BME280;1727;42.624;23.406;2022-10-19T02:59:02;95321.84;;;8.21;71.54
3428;BME280;1727;42.624;23.406;2022-10-19T03:01:29;95317.78;;;8.17;71.93
3428;BME280;1727;42.624;23.406;2022-10-19T03:03:55;95318.59;;;8.18;72.04
3428;BME280;1727;42.624;23.406;2022-10-19T03:06:23;95318.41;;;8.21;72.62
3428;BME280;1727;42.624;23.406;2022-10-19T03:08:50;95320.06;;;8.22;72.00
3428;BME280;1727;42.624;23.406;2022-10-19T03:11:17;95322.91;;;8.19;72.27
3428;BME280;1727;42.624;23.406;2022-10-19T03:13:46;95325.09;;;8.25;72.38
3428;BME280;1727;42.624;23.406;2022-10-19T03:16:13;95328.41;;;8.27;71.65
3428;BME280;1727;42.624;23.406;2022-10-19T03:18:40;95334.38;;;8.29;71.68
3428;BME280;1727;42.624;23.406;2022-10-19T03:21:08;95340.56;;;8.28;71.35
3428;BME280;1727;42.624;23.406;2022-10-19T03:23:37;95332.81;;;8.26;71.57
3428;BME280;1727;42.624;23.406;2022-10-19T03:26:05;95341.91;;;8.21;71.44
3428;BME280;1727;42.624;23.406;2022-10-19T03:28:32;95345.69;;;8.17;71.27
3428;BME280;1727;42.624;23.406;2022-10-19T03:30:59;95337.72;;;8.05;71.98
3428;BME280;1727;42.624;23.406;2022-10-19T03:33:26;95338.66;;;8.04;71.74
3428;BME280;1727;42.624;23.406;2022-10-19T03:36:14;95335.84;;;8.07;71.56
3428;BME280;1727;42.624;23.406;2022-10-19T03:38:43;95334.00;;;8.10;71.77
3428;BME280;1727;42.624;23.406;2022-10-19T03:41:10;95336.28;;;8.14;71.29
3428;BME280;1727;42.624;23.406;2022-10-19T03:43:37;95333.34;;;8.19;72.09
3428;BME280;1727;42.624;23.406;2022-10-19T03:46:09;95329.38;;;8.26;71.18
3428;BME280;1727;42.624;23.406;2022-10-19T03:48:36;95328.00;;;8.33;71.06
3428;BME280;1727;42.624;23.406;2022-10-19T03:51:05;95320.59;;;9.25;92.29
3428;BME280;1727;42.624;23.406;2022-10-19T03:53:33;95322.75;;;9.08;76.80
3428;BME280;1727;42.624;23.406;2022-10-19T03:56:03;95326.44;;;9.05;71.85
3428;BME280;1727;42.624;23.406;2022-10-19T03:58:34;95318.19;;;8.98;70.22
3428;BME280;1727;42.624;23.406;2022-10-19T04:01:05;95311.69;;;8.91;69.41
3428;BME280;1727;42.624;23.406;2022-10-19T04:03:33;95316.53;;;8.85;68.84
3428;BME280;1727;42.624;23.406;2022-10-19T04:06:04;95315.63;;;8.73;68.73
3428;BME280;1727;42.624;23.406;2022-10-19T04:08:32;95316.91;;;8.55;69.30
3428;BME280;1727;42.624;23.406;2022-10-19T04:11:00;95322.47;;;8.37;69.82
3428;BME280;1727;42.624;23.406;2022-10-19T04:13:29;95320.47;;;8.28;70.64
3428;BME280;1727;42.624;23.406;2022-10-19T04:15:56;95323.41;;;8.24;70.35
3428;BME280;1727;42.624;23.406;2022-10-19T04:18:23;95310.88;;;9.15;94.76
3428;BME280;1727;42.624;23.406;2022-10-19T04:20:55;95320.34;;;9.05;76.53
3428;BME280;1727;42.624;23.406;2022-10-19T04:23:22;95308.47;;;8.88;70.67
3428;BME280;1727;42.624;23.406;2022-10-19T04:25:50;95307.91;;;8.72;69.70
3428;BME280;1727;42.624;23.406;2022-10-19T04:28:16;95311.69;;;8.55;69.22
3428;BME280;1727;42.624;23.406;2022-10-19T04:30:44;95306.78;;;8.50;69.19
3428;BME280;1727;42.624;23.406;2022-10-19T04:33:11;95307.00;;;7.96;70.83
3428;BME280;1727;42.624;23.406;2022-10-19T04:35:38;95304.41;;;7.44;73.54
3428;BME280;1727;42.624;23.406;2022-10-19T04:38:05;95301.69;;;7.45;73.19
3428;BME280;1727;42.624;23.406;2022-10-19T04:40:33;95298.75;;;7.37;74.72
3428;BME280;1727;42.624;23.406;2022-10-19T04:43:00;95299.22;;;7.17;75.33
3428;BME280;1727;42.624;23.406;2022-10-19T04:45:27;95300.16;;;7.16;75.81
3428;BME280;1727;42.624;23.406;2022-10-19T04:47:55;95298.69;;;7.12;76.61
3428;BME280;1727;42.624;23.406;2022-10-19T04:50:22;95302.66;;;7.18;76.27
3428;BME280;1727;42.624;23.406;2022-10-19T04:52:49;95303.28;;;7.21;75.18
3428;BME280;1727;42.624;23.406;2022-10-19T04:55:16;95301.47;;;7.23;75.52
3428;BME280;1727;42.624;23.406;2022-10-19T04:57:43;95302.09;;;7.27;74.83
3428;BME280;1727;42.624;23.406;2022-10-19T05:00:11;95305.03;;;7.35;74.91
3428;BME280;1727;42.624;23.406;2022-10-19T05:02:41;95296.34;;;7.34;74.84
3428;BME280;1727;42.624;23.406;2022-10-19T05:05:10;95303.38;;;7.46;75.25
3428;BME280;1727;42.624;23.406;2022-10-19T05:07:37;95296.84;;;7.66;75.13
3428;BME280;1727;42.624;23.406;2022-10-19T05:10:05;95301.34;;;8.53;73.86
3428;BME280;1727;42.624;23.406;2022-10-19T05:12:33;95304.81;;;9.73;68.78
3428;BME280;1727;42.624;23.406;2022-10-19T05:15:00;95301.06;;;11.11;64.70
3428;BME280;1727;42.624;23.406;2022-10-19T05:17:28;95298.84;;;12.13;58.94
3428;BME280;1727;42.624;23.406;2022-10-19T05:19:55;95296.81;;;13.27;56.62
3428;BME280;1727;42.624;23.406;2022-10-19T05:22:23;95299.72;;;14.30;52.85
3428;BME280;1727;42.624;23.406;2022-10-19T05:24:50;95287.69;;;15.19;49.81
3428;BME280;1727;42.624;23.406;2022-10-19T05:27:17;95292.28;;;15.80;46.59
3428;BME280;1727;42.624;23.406;2022-10-19T05:29:44;95285.75;;;16.10;44.81
3428;BME280;1727;42.624;23.406;2022-10-19T05:32:10;95282.88;;;16.22;44.53
3428;BME280;1727;42.624;23.406;2022-10-19T05:34:37;95281.09;;;16.30;44.38
3428;BME280;1727;42.624;23.406;2022-10-19T05:37:04;95284.47;;;16.40;43.06
3428;BME280;1727;42.624;23.406;2022-10-19T05:39:32;95287.00;;;16.76;43.13
3428;BME280;1727;42.624;23.406;2022-10-19T05:41:59;95292.19;;;17.28;41.65
3428;BME280;1727;42.624;23.406;2022-10-19T05:44:25;95283.81;;;17.57;40.74
3428;BME280;1727;42.624;23.406;2022-10-19T05:46:52;95278.75;;;17.72;40.17
3428;BME280;1727;42.624;23.406;2022-10-19T05:49:20;95284.88;;;17.80;39.95
3428;BME280;1727;42.624;23.406;2022-10-19T05:51:48;95287.72;;;17.95;39.73
3428;BME280;1727;42.624;23.406;2022-10-19T05:54:15;95293.69;;;18.13;39.79
3428;BME280;1727;42.624;23.406;2022-10-19T05:56:43;95290.38;;;18.11;39.53
3428;BME280;1727;42.624;23.406;2022-10-19T05:59:14;95287.88;;;18.10;39.34
3428;BME280;1727;42.624;23.406;2022-10-19T06:01:41;95284.06;;;17.72;40.08
3428;BME280;1727;42.624;23.406;2022-10-19T06:04:08;95286.81;;;17.54;40.50
3428;BME280;1727;42.624;23.406;2022-10-19T06:06:35;95293.25;;;17.35;40.76
3428;BME280;1727;42.624;23.406;2022-10-19T06:09:02;95285.56;;;17.24;41.11
3428;BME280;1727;42.624;23.406;2022-10-19T06:11:31;95294.28;;;16.74;41.92
3428;BME280;1727;42.624;23.406;2022-10-19T06:14:01;95299.03;;;16.19;42.98
3428;BME280;1727;42.624;23.406;2022-10-19T06:16:29;95295.53;;;15.74;44.09
3428;BME280;1727;42.624;23.406;2022-10-19T06:18:57;95301.75;;;15.65;45.33
3428;BME280;1727;42.624;23.406;2022-10-19T06:21:26;95299.03;;;15.75;45.33
3428;BME280;1727;42.624;23.406;2022-10-19T06:23:56;95304.78;;;15.70;45.74
3428;BME280;1727;42.624;23.406;2022-10-19T06:26:23;95306.59;;;15.70;44.85
3428;BME280;1727;42.624;23.406;2022-10-19T06:28:50;95314.84;;;15.67;44.92
3428;BME280;1727;42.624;23.406;2022-10-19T06:31:21;95316.03;;;15.72;45.30
3428;BME280;1727;42.624;23.406;2022-10-19T06:33:48;95310.50;;;15.84;45.65
3428;BME280;1727;42.624;23.406;2022-10-19T06:36:17;95311.13;;;15.77;45.46
3428;BME280;1727;42.624;23.406;2022-10-19T06:38:44;95312.94;;;15.95;45.78
3428;BME280;1727;42.624;23.406;2022-10-19T06:41:12;95311.34;;;15.84;45.06
3428;BME280;1727;42.624;23.406;2022-10-19T06:43:38;95313.59;;;15.79;45.64
3428;BME280;1727;42.624;23.406;2022-10-19T06:46:09;95306.34;;;15.81;46.51
3428;BME280;1727;42.624;23.406;2022-10-19T06:48:38;95304.47;;;15.73;45.36
3428;BME280;1727;42.624;23.406;2022-10-19T06:51:06;95303.69;;;15.81;44.99
3428;BME280;1727;42.624;23.406;2022-10-19T06:53:33;95298.72;;;15.96;44.55
3428;BME280;1727;42.624;23.406;2022-10-19T06:56:01;95296.06;;;15.78;44.07
3428;BME280;1727;42.624;23.406;2022-10-19T06:58:28;95295.53;;;15.74;44.73
3428;BME280;1727;42.624;23.406;2022-10-19T07:00:55;95294.72;;;15.74;44.42
3428;BME280;1727;42.624;23.406;2022-10-19T07:03:23;95292.31;;;15.63;44.17
3428;BME280;1727;42.624;23.406;2022-10-19T07:05:55;95282.97;;;15.41;45.57
3428;BME280;1727;42.624;23.406;2022-10-19T07:08:22;95277.59;;;15.33;45.48
3428;BME280;1727;42.624;23.406;2022-10-19T07:10:50;95276.97;;;15.21;45.89
3428;BME280;1727;42.624;23.406;2022-10-19T07:13:17;95271.09;;;15.00;46.87
3428;BME280;1727;42.624;23.406;2022-10-19T07:15:44;95274.88;;;14.97;46.94
3428;BME280;1727;42.624;23.406;2022-10-19T07:18:11;95274.38;;;14.84;47.37
3428;BME280;1727;42.624;23.406;2022-10-19T07:20:38;95280.22;;;14.87;46.96
3428;BME280;1727;42.624;23.406;2022-10-19T07:23:06;95273.75;;;15.00;47.09
3428;BME280;1727;42.624;23.406;2022-10-19T07:25:34;95265.94;;;15.08;46.78
3428;BME280;1727;42.624;23.406;2022-10-19T07:28:01;95277.34;;;15.26;46.43
3428;BME280;1727;42.624;23.406;2022-10-19T07:30:29;95270.56;;;15.41;46.11
3428;BME280;1727;42.624;23.406;2022-10-19T07:32:56;95268.66;;;15.52;46.11
3428;BME280;1727;42.624;23.406;2022-10-19T07:35:23;95267.13;;;15.59;46.30
3428;BME280;1727;42.624;23.406;2022-10-19T07:37:49;95265.47;;;15.75;44.70
3428;BME280;1727;42.624;23.406;2022-10-19T07:40:18;95267.19;;;15.85;45.02
3428;BME280;1727;42.624;23.406;2022-10-19T07:42:44;95256.44;;;15.86;43.54
3428;BME280;1727;42.624;23.406;2022-10-19T07:45:11;95251.16;;;15.86;43.88
3428;BME280;1727;42.624;23.406;2022-10-19T07:47:38;95252.81;;;15.87;43.66
3428;BME280;1727;42.624;23.406;2022-10-19T07:50:05;95248.75;;;15.75;43.96
3428;BME280;1727;42.624;23.406;2022-10-19T07:52:32;95239.59;;;15.52;43.87
3428;BME280;1727;42.624;23.406;2022-10-19T07:54:58;95248.13;;;15.45;44.43
3428;BME280;1727;42.624;23.406;2022-10-19T07:57:27;95234.13;;;15.53;45.19
3428;BME280;1727;42.624;23.406;2022-10-19T07:59:53;95230.75;;;15.61;45.21
3428;BME280;1727;42.624;23.406;2022-10-19T08:02:20;95233.56;;;15.77;44.93
3428;BME280;1727;42.624;23.406;2022-10-19T08:04:47;95229.91;;;15.96;45.09
3428;BME280;1727;42.624;23.406;2022-10-19T08:07:13;95218.94;;;16.17;43.79
3428;BME280;1727;42.624;23.406;2022-10-19T08:09:40;95223.00;;;16.29;43.33
3428;BME280;1727;42.624;23.406;2022-10-19T08:12:07;95226.63;;;16.28;43.35
3428;BME280;1727;42.624;23.406;2022-10-19T08:14:35;95229.47;;;16.08;43.53
3428;BME280;1727;42.624;23.406;2022-10-19T08:17:02;95220.31;;;16.21;43.79
3428;BME280;1727;42.624;23.406;2022-10-19T08:19:29;95222.03;;;16.38;44.02
3428;BME280;1727;42.624;23.406;2022-10-19T08:21:55;95220.22;;;16.38;43.60
3428;BME280;1727;42.624;23.406;2022-10-19T08:24:22;95217.06;;;16.35;43.88
3428;BME280;1727;42.624;23.406;2022-10-19T08:26:49;95215.78;;;16.47;43.66
3428;BME280;1727;42.624;23.406;2022-10-19T08:29:18;95220.41;;;16.45;44.11
3428;BME280;1727;42.624;23.406;2022-10-19T08:31:47;95211.03;;;16.51;43.87
3428;BME280;1727;42.624;23.406;2022-10-19T08:34:15;95208.16;;;16.70;43.38
3428;BME280;1727;42.624;23.406;2022-10-19T08:36:42;95204.06;;;16.84;43.49
3428;BME280;1727;42.624;23.406;2022-10-19T08:39:09;95201.13;;;16.95;43.10
3428;BME280;1727;42.624;23.406;2022-10-19T08:41:49;95205.16;;;17.15;42.58
3428;BME280;1727;42.624;23.406;2022-10-19T08:47:19;95198.72;;;17.58;41.95
3428;BME280;1727;42.624;23.406;2022-10-19T08:49:51;95200.94;;;17.71;41.45
3428;BME280;1727;42.624;23.406;2022-10-19T08:52:20;95187.81;;;17.94;41.36
3428;BME280;1727;42.624;23.406;2022-10-19T08:54:50;95190.31;;;17.95;40.76
3428;BME280;1727;42.624;23.406;2022-10-19T08:57:27;95191.97;;;17.80;40.52
3428;BME280;1727;42.624;23.406;2022-10-19T09:00:02;95186.16;;;17.77;40.65
3428;BME280;1727;42.624;23.406;2022-10-19T09:02:42;95182.53;;;17.70;41.40
3428;BME280;1727;42.624;23.406;2022-10-19T09:05:19;95191.28;;;17.86;41.94
3428;BME280;1727;42.624;23.406;2022-10-19T09:07:51;95183.16;;;17.88;41.50
3428;BME280;1727;42.624;23.406;2022-10-19T09:10:21;95186.31;;;17.83;41.52
3428;BME280;1727;42.624;23.406;2022-10-19T09:12:54;95183.34;;;17.78;42.36
3428;BME280;1727;42.624;23.406;2022-10-19T09:15:26;95175.72;;;17.83;42.70
3428;BME280;1727;42.624;23.406;2022-10-19T09:17:54;95171.22;;;17.84;41.90
3428;BME280;1727;42.624;23.406;2022-10-19T09:20:25;95170.72;;;17.88;42.17
3428;BME280;1727;42.624;23.406;2022-10-19T09:23:02;95163.25;;;18.00;42.26
3428;BME280;1727;42.624;23.406;2022-10-19T09:25:32;95163.75;;;18.04;42.03
3428;BME280;1727;42.624;23.406;2022-10-19T09:28:09;95161.41;;;18.01;42.03
3428;BME280;1727;42.624;23.406;2022-10-19T09:30:39;95167.38;;;18.11;42.44
3428;BME280;1727;42.624;23.406;2022-10-19T09:33:14;95162.84;;;18.19;42.09
3428;BME280;1727;42.624;23.406;2022-10-19T09:35:44;95164.38;;;18.22;41.94
3428;BME280;1727;42.624;23.406;2022-10-19T09:38:14;95157.19;;;18.31;42.21
3428;BME280;1727;42.624;23.406;2022-10-19T09:40:42;95171.00;;;18.26;42.12
3428;BME280;1727;42.624;23.406;2022-10-19T09:43:10;95170.66;;;18.29;42.72
3428;BME280;1727;42.624;23.406;2022-10-19T09:45:49;95175.97;;;18.29;42.45
3428;BME280;1727;42.624;23.406;2022-10-19T09:48:25;95173.63;;;18.34;42.67
3428;BME280;1727;42.624;23.406;2022-10-19T09:50:55;95174.66;;;18.25;42.64
3428;BME280;1727;42.624;23.406;2022-10-19T09:53:23;95173.13;;;18.31;43.45
3428;BME280;1727;42.624;23.406;2022-10-19T09:55:57;95171.59;;;18.44;43.09
3428;BME280;1727;42.624;23.406;2022-10-19T09:58:26;95162.44;;;18.55;43.08
3428;BME280;1727;42.624;23.406;2022-10-19T10:00:54;95158.59;;;18.57;43.12
3428;BME280;1727;42.624;23.406;2022-10-19T10:03:25;95160.91;;;18.61;41.51
3428;BME280;1727;42.624;23.406;2022-10-19T10:05:54;95155.94;;;18.66;41.01
3428;BME280;1727;42.624;23.406;2022-10-19T10:08:25;95151.28;;;18.60;40.84
3428;BME280;1727;42.624;23.406;2022-10-19T10:10:56;95152.97;;;18.52;40.48
3428;BME280;1727;42.624;23.406;2022-10-19T10:13:26;95147.19;;;18.41;40.64
3428;BME280;1727;42.624;23.406;2022-10-19T10:15:55;95149.31;;;18.45;41.83
3428;BME280;1727;42.624;23.406;2022-10-19T10:18:26;95149.31;;;18.45;41.63
3428;BME280;1727;42.624;23.406;2022-10-19T10:21:02;95139.88;;;18.43;41.69
3428;BME280;1727;42.624;23.406;2022-10-19T10:23:31;95133.38;;;18.45;41.71
3428;BME280;1727;42.624;23.406;2022-10-19T10:26:02;95123.91;;;18.51;41.35
3428;BME280;1727;42.624;23.406;2022-10-19T10:28:29;95114.59;;;18.55;40.38
3428;BME280;1727;42.624;23.406;2022-10-19T10:31:00;95113.25;;;18.59;40.94
3428;BME280;1727;42.624;23.406;2022-10-19T10:33:30;95110.41;;;18.61;40.71
3428;BME280;1727;42.624;23.406;2022-10-19T10:36:01;95102.06;;;18.72;40.66
3428;BME280;1727;42.624;23.406;2022-10-19T10:38:31;95100.63;;;18.92;41.10
3428;BME280;1727;42.624;23.406;2022-10-19T10:41:01;95095.41;;;18.99;39.61
3428;BME280;1727;42.624;23.406;2022-10-19T10:43:30;95088.38;;;19.06;39.88
3428;BME280;1727;42.624;23.406;2022-10-19T10:46:00;95089.72;;;19.10;39.50
3428;BME280;1727;42.624;23.406;2022-10-19T10:48:33;95090.47;;;19.18;40.59
3428;BME280;1727;42.624;23.406;2022-10-19T10:51:01;95079.75;;;19.27;46.55
3428;BME280;1727;42.624;23.406;2022-10-19T10:53:34;95081.53;;;19.57;39.92
3428;BME280;1727;42.624;23.406;2022-10-19T10:56:02;95074.41;;;19.72;42.75
3428;BME280;1727;42.624;23.406;2022-10-19T10:58:35;95068.53;;;19.77;38.94
3428;BME280;1727;42.624;23.406;2022-10-19T11:01:06;95055.97;;;20.00;39.22
3428;BME280;1727;42.624;23.406;2022-10-19T11:03:46;95057.97;;;20.13;39.01
3428;BME280;1727;42.624;23.406;2022-10-19T11:06:15;95048.41;;;20.19;37.46
3428;BME280;1727;42.624;23.406;2022-10-19T11:08:48;95046.28;;;20.14;36.33
3428;BME280;1727;42.624;23.406;2022-10-19T11:11:18;95045.66;;;20.12;37.17
3428;BME280;1727;42.624;23.406;2022-10-19T11:13:50;95039.59;;;20.03;36.51
3428;BME280;1727;42.624;23.406;2022-10-19T11:16:22;95036.19;;;19.95;35.08
3428;BME280;1727;42.624;23.406;2022-10-19T11:18:55;95034.53;;;19.94;35.60
3428;BME280;1727;42.624;23.406;2022-10-19T11:21:29;95032.06;;;19.92;36.14
3428;BME280;1727;42.624;23.406;2022-10-19T11:24:05;95024.25;;;19.91;34.88
3428;BME280;1727;42.624;23.406;2022-10-19T11:26:46;95030.13;;;19.86;35.30
3428;BME280;1727;42.624;23.406;2022-10-19T11:29:26;95027.38;;;19.79;34.81
3428;BME280;1727;42.624;23.406;2022-10-19T11:31:56;95021.97;;;19.73;35.67
3428;BME280;1727;42.624;23.406;2022-10-19T11:34:51;95009.47;;;19.73;36.89
3428;BME280;1727;42.624;23.406;2022-10-19T11:37:27;95018.56;;;19.79;35.96
3428;BME280;1727;42.624;23.406;2022-10-19T11:40:05;95016.19;;;19.84;34.59
3428;BME280;1727;42.624;23.406;2022-10-19T11:42:48;95013.97;;;19.88;34.36
3428;BME280;1727;42.624;23.406;2022-10-19T11:45:26;95002.50;;;19.87;33.50
3428;BME280;1727;42.624;23.406;2022-10-19T11:48:12;95012.69;;;19.84;32.16
3428;BME280;1727;42.624;23.406;2022-10-19T11:50:50;95005.91;;;19.81;33.25
3428;BME280;1727;42.624;23.406;2022-10-19T11:53:25;94995.06;;;19.83;33.05
3428;BME280;1727;42.624;23.406;2022-10-19T11:56:00;94987.53;;;19.86;31.92
3428;BME280;1727;42.624;23.406;2022-10-19T11:58:38;94995.88;;;19.83;31.54
3428;BME280;1727;42.624;23.406;2022-10-19T12:01:15;94988.34;;;19.87;32.15
3428;BME280;1727;42.624;23.406;2022-10-19T12:04:05;94984.50;;;19.89;32.17
3428;BME280;1727;42.624;23.406;2022-10-19T12:06:42;94984.50;;;19.89;32.89
3428;BME280;1727;42.624;23.406;2022-10-19T12:09:22;94978.34;;;19.89;32.41
3428;BME280;1727;42.624;23.406;2022-10-19T12:14:47;94965.56;;;19.99;33.05
3428;BME280;1727;42.624;23.406;2022-10-19T12:17:20;94960.88;;;20.01;33.45
3428;BME280;1727;42.624;23.406;2022-10-19T12:19:52;94956.00;;;20.04;33.36
3428;BME280;1727;42.624;23.406;2022-10-19T12:22:26;94967.94;;;20.08;33.51
3428;BME280;1727;42.624;23.406;2022-10-19T12:24:54;94967.38;;;20.13;33.00
3428;BME280;1727;42.624;23.406;2022-10-19T12:27:27;94960.66;;;20.17;32.35
3428;BME280;1727;42.624;23.406;2022-10-19T12:29:57;94964.53;;;20.15;32.31
3428;BME280;1727;42.624;23.406;2022-10-19T12:32:28;94958.38;;;20.14;32.88
3428;BME280;1727;42.624;23.406;2022-10-19T12:35:03;94953.69;;;20.16;32.70
3428;BME280;1727;42.624;23.406;2022-10-19T12:37:39;94959.84;;;20.17;33.28
3428;BME280;1727;42.624;23.406;2022-10-19T12:40:17;94959.19;;;20.15;33.47
3428;BME280;1727;42.624;23.406;2022-10-19T12:42:55;94951.56;;;20.11;32.88
3428;BME280;1727;42.624;23.406;2022-10-19T12:45:27;94949.28;;;20.08;32.64
3428;BME280;1727;42.624;23.406;2022-10-19T12:48:16;94949.66;;;20.05;33.45
3428;BME280;1727;42.624;23.406;2022-10-19T12:51:02;94953.53;;;20.03;33.29
3428;BME280;1727;42.624;23.406;2022-10-19T12:53:32;94943.50;;;20.05;34.31
3428;BME280;1727;42.624;23.406;2022-10-19T12:56:04;94956.19;;;20.03;34.18
3428;BME280;1727;42.624;23.406;2022-10-19T12:58:35;94953.09;;;19.99;34.09
3428;BME280;1727;42.624;23.406;2022-10-19T13:01:04;94945.91;;;20.00;34.47
3428;BME280;1727;42.624;23.406;2022-10-19T13:03:34;94938.56;;;20.02;34.62
3428;BME280;1727;42.624;23.406;2022-10-19T13:06:10;94947.25;;;20.10;35.18
3428;BME280;1727;42.624;23.406;2022-10-19T13:08:41;94945.03;;;20.14;33.43
3428;BME280;1727;42.624;23.406;2022-10-19T13:11:10;94947.34;;;20.17;33.19
3428;BME280;1727;42.624;23.406;2022-10-19T13:14:03;94948.53;;;20.15;32.68
3428;BME280;1727;42.624;23.406;2022-10-19T13:16:55;94946.31;;;20.18;33.31
3428;BME280;1727;42.624;23.406;2022-10-19T13:19:22;94945.94;;;20.21;34.40
3428;BME280;1727;42.624;23.406;2022-10-19T13:27:53;94937.41;;;20.26;34.47
3428;BME280;1727;42.624;23.406;2022-10-19T13:30:57;94930.78;;;20.22;34.71
3428;BME280;1727;42.624;23.406;2022-10-19T13:33:52;94937.31;;;20.19;35.39
3428;BME280;1727;42.624;23.406;2022-10-19T13:36:20;94935.22;;;20.15;35.51
3428;BME280;1727;42.624;23.406;2022-10-19T13:39:13;94926.66;;;20.19;35.44
3428;BME280;1727;42.624;23.406;2022-10-19T13:41:49;94931.16;;;20.19;35.37
3428;BME280;1727;42.624;23.406;2022-10-19T13:44:31;94929.94;;;20.21;35.57
3428;BME280;1727;42.624;23.406;2022-10-19T13:50:14;94921.31;;;20.19;36.29